Flight Track Log - Related Links

Times and Time Zones

All times are in EDT time to prevent confusion due to time zone crossing. See the N747XJ flight status page for this flight to view local times or setup timezone preferences in your user account.

Time Position Orientation Groundspeed Altitude Reporting Facility
EDT Latitude Longitude Course Direction KTS MPH feet Rate Location/Type
Tue 12:39:55 PM 42.4667 -71.2500 196° South 208 239 1,400  Level KA90
Tue 12:41:26 PM 42.3986 -71.2761 196° South 209 241 4,600 2,384 Climbing Boston Center
Tue 12:42:26 PM 42.3556 -71.3611 236° Southwest 247 284 7,400 2,800 Climbing Boston Center
Tue 12:43:26 PM 42.3525 -71.4625 268° West 266 306 10,200 2,600 Climbing Boston Center
Tue 12:44:26 PM 42.3472 -71.5889 267° West 303 349 12,600 2,150 Climbing Boston Center
Tue 12:45:26 PM 42.3397 -71.7069 265° West 342 394 14,500 1,833 Climbing Boston Center
Tue 12:47:26 PM 42.3203 -71.9908 265° West 388 447 18,100 1,833 Climbing Boston Center
Tue 12:48:26 PM 42.3125 -72.1425 266° West 399 459 20,000 1,950 Climbing Boston Center
Tue 12:49:26 PM 42.3025 -72.2942 265° West 410 472 22,000 2,000 Climbing Boston Center
Tue 12:50:26 PM 42.2919 -72.4486 265° West 410 472 24,000 2,150 Climbing Boston Center
Tue 12:51:26 PM 42.2794 -72.6056 264° West 415 478 26,300 2,400 Climbing Boston Center
Tue 12:52:26 PM 42.2686 -72.7542 264° West 415 478 28,800 2,250 Climbing Boston Center
Tue 12:53:26 PM 42.2578 -72.9086 265° West 415 478 30,800 1,750 Climbing Boston Center
Tue 12:54:26 PM 42.2467 -73.0628 264° West 415 478 32,300 1,500 Climbing Boston Center
Tue 12:55:26 PM 42.2353 -73.2225 265° West 426 490 33,800 1,433 Climbing Boston Center
Tue 12:57:26 PM 42.2158 -73.5444 265° West 426 490 36,600 1,267 Climbing Boston Center
Tue 12:58:26 PM 42.2036 -73.7069 264° West 432 497 37,600 850 Climbing Boston Center
Tue 12:59:26 PM 42.1847 -73.8886 262° West 461 531 38,300 600 Climbing Boston Center
Tue 01:00:26 PM 42.1719 -74.0789 265° West 468 539 38,800 550 Climbing Boston Center
Tue 01:01:26 PM 42.1567 -74.2578 263° West 473 544 39,400 605 Climbing Boston Center
Tue 01:02:25 PM 42.1458 -74.3975 264° West 479 551 40,000 663 Climbing Boston Center
Tue 01:04:18 PM 42.1153 -74.7353 263° West 445 512 41,300 632 Climbing New York Center
Tue 01:05:16 PM 42.0989 -74.9131 263° West 465 535 41,800 508 Climbing New York Center
Tue 01:06:16 PM 42.0814 -75.1103 263° West 473 544 42,300 492 Climbing New York Center
Tue 01:07:18 PM 42.0686 -75.2828 264° West 479 551 42,800 350 Climbing New York Center
Tue 01:08:16 PM 42.0661 -75.4558 269° West 479 551 43,000 102 Climbing New York Center
Tue 01:09:16 PM 42.0694 -75.6319 272° West 474 545 43,000  Level New York Center
Tue 01:10:17 PM 42.0725 -75.8081 271° West 479 551 43,000  Level New York Center
Tue 01:11:17 PM 42.0772 -75.9872 272° West 479 551 43,000  Level New York Center
Tue 01:12:18 PM 42.0797 -76.1664 271° West 479 551 43,000  Level New York Center
Tue 01:13:16 PM 42.0839 -76.3456 272° West 479 551 43,000  Level New York Center
Tue 01:15:21 PM 42.0889 -76.7161 271° West 474 545 43,000  Level Cleveland Center
Tue 01:16:21 PM 42.0925 -76.8950 272° West 479 551 43,000  Level Cleveland Center
Tue 01:17:21 PM 42.0900 -77.0769 269° West 479 551 43,000  Level Cleveland Center
Tue 01:18:21 PM 42.0661 -77.2572 260° West 484 557 43,000  Level Cleveland Center
Tue 01:19:21 PM 42.0442 -77.4347 261° West 484 557 43,000  Level Cleveland Center
Tue 01:20:21 PM 42.0239 -77.6147 261° West 484 557 43,000  Level Cleveland Center
Tue 01:21:21 PM 41.9992 -77.7919 259° West 489 563 43,000  Level Cleveland Center
Tue 01:22:21 PM 41.9761 -77.9717 260° West 489 563 43,000  Level Cleveland Center
Tue 01:23:21 PM 41.9550 -78.1483 261° West 489 563 43,000  Level Cleveland Center
Tue 01:24:21 PM 41.9333 -78.3056 260° West 489 563 43,000  Level Cleveland Center
Tue 01:25:21 PM 41.9094 -78.4822 260° West 484 557 43,000  Level Cleveland Center
Tue 01:26:21 PM 41.8856 -78.6642 260° West 489 563 43,000  Level Cleveland Center
Tue 01:27:21 PM 41.8614 -78.8406 260° West 489 563 43,000  Level Cleveland Center
Tue 01:28:21 PM 41.8350 -79.0392 260° West 489 563 43,000  Level Cleveland Center
Tue 01:29:21 PM 41.8122 -79.2181 260° West 489 563 43,000  Level Cleveland Center
Tue 01:30:21 PM 41.7869 -79.3772 258° West 489 563 43,000  Level Cleveland Center
Tue 01:31:21 PM 41.7614 -79.5531 259° West 489 563 43,000  Level Cleveland Center
Tue 01:32:21 PM 41.7317 -79.7456 258° West 489 563 43,000  Level Cleveland Center
Tue 01:33:21 PM 41.7058 -79.9211 259° West 489 563 43,000  Level Cleveland Center
Tue 01:34:21 PM 41.6797 -80.0967 259° West 489 563 43,000  Level Cleveland Center
Tue 01:35:21 PM 41.6594 -80.2525 260° West 489 563 43,000  Level Cleveland Center
Tue 01:36:21 PM 41.6283 -80.4303 257° West 489 563 43,000  Level Cleveland Center
Tue 01:37:21 PM 41.6036 -80.5997 259° West 489 563 43,000  Level Cleveland Center
Tue 01:38:21 PM 41.5783 -80.7747 259° West 489 563 43,000  Level Cleveland Center
Tue 01:39:21 PM 41.5508 -80.9467 258° West 483 556 43,000  Level Cleveland Center
Tue 01:40:21 PM 41.5231 -81.1183 258° West 483 556 43,000  Level Cleveland Center
Tue 01:41:21 PM 41.4972 -81.2900 259° West 483 556 43,000  Level Cleveland Center
Tue 01:42:21 PM 41.4708 -81.4589 258° West 476 548 43,000  Level Cleveland Center
Tue 01:43:21 PM 41.4425 -81.6303 258° West 471 542 43,000  Level Cleveland Center
Tue 01:44:21 PM 41.4156 -81.7986 258° West 471 542 43,000  Level Cleveland Center
Tue 01:45:21 PM 41.3931 -81.9533 259° West 471 542 43,000  Level Cleveland Center
Tue 01:46:21 PM 41.3614 -82.1406 257° West 464 534 43,000  Level Cleveland Center
Tue 01:47:21 PM 41.3425 -82.3089 262° West 473 544 43,000  Level Cleveland Center
Tue 01:48:21 PM 41.3208 -82.4825 261° West 473 544 43,000  Level Cleveland Center
Tue 01:49:21 PM 41.2989 -82.6700 261° West 473 544 43,000  Level Cleveland Center
Tue 01:50:21 PM 41.2789 -82.8378 261° West 473 544 43,000  Level Cleveland Center
Tue 01:51:21 PM 41.2608 -83.0083 262° West 467 537 43,000  Level Cleveland Center
Tue 01:52:21 PM 41.2383 -83.1817 260° West 467 537 43,000  Level Cleveland Center
Tue 01:53:21 PM 41.2178 -83.3492 261° West 467 537 43,000  Level Cleveland Center
Tue 01:54:21 PM 41.1967 -83.5222 261° West 467 537 43,000  Level Cleveland Center
Tue 01:55:21 PM 41.1736 -83.6894 260° West 473 544 43,000  Level Cleveland Center
Tue 01:57:44 PM 41.1289 -84.0869 262° West 472 543 43,000  Level Chicago Center
Tue 01:58:46 PM 41.1053 -84.2606 260° West 476 548 43,000  Level Chicago Center
Tue 01:59:47 PM 41.0822 -84.4331 260° West 475 547 43,000  Level Chicago Center
Tue 02:00:49 PM 41.0589 -84.6064 260° West 477 549 43,000  Level Chicago Center
Tue 02:01:51 PM 41.0353 -84.7800 260° West 478 550 43,000  Level Chicago Center
Tue 02:02:53 PM 41.0061 -84.9881 260° West 477 549 43,000  Level Chicago Center
Tue 02:03:55 PM 40.9828 -85.1617 260° West 478 550 43,000  Level Chicago Center
Tue 02:04:57 PM 40.9606 -85.3358 260° West 478 550 43,000  Level Chicago Center
Tue 02:05:59 PM 40.9386 -85.5117 261° West 481 554 43,000  Level Chicago Center
Tue 02:07:01 PM 40.9175 -85.6872 261° West 482 555 43,000  Level Chicago Center
Tue 02:08:03 PM 40.8950 -85.8619 260° West 482 555 43,000  Level Chicago Center
Tue 02:09:05 PM 40.8739 -86.0392 261° West 486 559 43,000  Level Chicago Center
Tue 02:10:07 PM 40.8506 -86.2142 260° West 485 558 43,000  Level Chicago Center
Tue 02:11:09 PM 40.8242 -86.4244 261° West 485 558 43,000  Level Chicago Center
Tue 02:12:11 PM 40.8003 -86.5958 260° West 479 551 43,000  Level Chicago Center
Tue 02:13:12 PM 40.7769 -86.7711 260° West 483 556 43,000  Level Chicago Center
Tue 02:14:14 PM 40.7544 -86.9433 260° West 479 551 43,000  Level Chicago Center
Tue 02:15:16 PM 40.7303 -87.1183 260° West 483 556 43,000  Level Chicago Center
Tue 02:16:18 PM 40.7064 -87.2914 260° West 482 555 43,000  Level Chicago Center
Tue 02:17:20 PM 40.6772 -87.5008 260° West 484 557 43,000  Level Chicago Center
Tue 02:18:22 PM 40.6528 -87.6744 260° West 483 556 43,000  Level Chicago Center
Tue 02:19:23 PM 40.6281 -87.8486 259° West 483 556 43,000  Level Chicago Center
Tue 02:20:25 PM 40.6025 -88.0225 259° West 483 556 43,000  Level Chicago Center
Tue 02:21:27 PM 40.5786 -88.1967 260° West 484 557 43,000  Level Chicago Center
Tue 02:22:29 PM 40.5653 -88.3728 264° West 484 557 43,000  Level Chicago Center
Tue 02:23:31 PM 40.5500 -88.5489 264° West 485 558 43,000  Level Chicago Center
Tue 02:24:33 PM 40.5314 -88.7575 263° West 481 554 43,000  Level Chicago Center
Tue 02:25:34 PM 40.5186 -88.9078 264° West 485 558 43,000  Level Chicago Center
Tue 02:26:36 PM 40.5000 -89.1197 263° West 484 557 43,000  Level Chicago Center
Tue 02:27:38 PM 40.4839 -89.2989 263° West 492 566 43,000  Level Chicago Center
Tue 02:28:40 PM 40.4675 -89.4742 263° West 483 556 43,000  Level Chicago Center
Tue 02:29:42 PM 40.4500 -89.6503 263° West 481 554 43,000  Level Chicago Center
Tue 02:30:44 PM 40.4331 -89.8283 263° West 484 557 43,000  Level Chicago Center
Tue 02:31:46 PM 40.4150 -90.0072 263° West 486 559 43,000  Level Chicago Center
Tue 02:32:48 PM 40.3983 -90.1839 263° West 488 562 43,000  Level Chicago Center
Tue 02:33:50 PM 40.3806 -90.3608 263° West 489 563 43,000  Level Chicago Center
Tue 02:34:52 PM 40.3636 -90.5361 263° West 486 559 43,000  Level Chicago Center
Tue 02:35:54 PM 40.3411 -90.7469 262° West 487 560 43,000  Level Chicago Center
Tue 02:36:56 PM 40.3236 -90.9217 263° West 485 558 43,000  Level Chicago Center
Tue 02:37:20 PM 40.3169 -90.9922 263° West 486 559 43,000  Level Kansas City Center
Tue 02:38:22 PM 40.2969 -91.1722 262° West 486 559 43,000  Level Kansas City Center
Tue 02:39:24 PM 40.2761 -91.3464 261° West 487 560 43,000  Level Kansas City Center
Tue 02:40:26 PM 40.2581 -91.5200 262° West 486 559 43,000  Level Kansas City Center
Tue 02:41:28 PM 40.2389 -91.6944 262° West 486 559 43,000  Level Kansas City Center
Tue 02:42:30 PM 40.2153 -91.9031 262° West 487 560 43,000  Level Kansas City Center
Tue 02:43:32 PM 40.1953 -92.0772 262° West 487 560 43,000  Level Kansas City Center
Tue 02:44:34 PM 40.1756 -92.2519 262° West 487 560 43,000  Level Kansas City Center
Tue 02:45:36 PM 40.1528 -92.4356 261° West 485 558 43,000  Level Kansas City Center
Tue 02:46:38 PM 40.1328 -92.6039 261° West 488 562 43,000  Level Kansas City Center
Tue 02:47:40 PM 40.0906 -92.7936 254° West 487 560 43,000  Level Kansas City Center
Tue 02:48:42 PM 40.0578 -92.9469 254° West 486 559 43,000  Level Kansas City Center
Tue 02:49:44 PM 40.0122 -93.1494 254° West 487 560 43,000  Level Kansas City Center
Tue 02:50:46 PM 39.9767 -93.3183 255° West 487 560 43,000  Level Kansas City Center
Tue 02:51:49 PM 39.9386 -93.4858 254° West 487 560 43,000  Level Kansas City Center
Tue 02:52:51 PM 39.9014 -93.6517 254° West 483 556 43,000  Level Kansas City Center
Tue 02:53:53 PM 39.8633 -93.8169 253° West 482 555 43,000  Level Kansas City Center
Tue 02:54:55 PM 39.8192 -94.0139 254° West 476 548 43,000  Level Kansas City Center
Tue 02:55:57 PM 39.7803 -94.1844 254° West 477 549 43,000  Level Kansas City Center
Tue 02:56:59 PM 39.7439 -94.3403 253° West 473 544 43,000  Level Kansas City Center
Tue 02:58:01 PM 39.7017 -94.5242 253° West 476 548 43,000  Level Kansas City Center
Tue 02:59:05 PM 39.6644 -94.6806 253° West 475 547 43,000  Level Kansas City Center
Tue 03:00:07 PM 39.6214 -94.8631 253° West 475 547 43,000  Level Kansas City Center
Tue 03:01:09 PM 39.5833 -95.0206 253° West 479 551 43,000  Level Kansas City Center
Tue 03:02:11 PM 39.5403 -95.2014 253° West 481 554 43,000  Level Kansas City Center
Tue 03:03:13 PM 39.4981 -95.3772 253° West 478 550 43,000  Level Kansas City Center
Tue 03:04:15 PM 39.4569 -95.5411 252° West 480 552 43,000  Level Kansas City Center
Tue 03:05:17 PM 39.4189 -95.6986 253° West 483 556 43,000  Level Kansas City Center
Tue 03:06:19 PM 39.3717 -95.8844 252° West 490 564 43,000  Level Kansas City Center
Tue 03:07:21 PM 39.3328 -96.0425 252° West 486 559 43,000  Level Kansas City Center
Tue 03:08:23 PM 39.2889 -96.2128 252° West 485 558 43,000  Level Kansas City Center
Tue 03:09:25 PM 39.2467 -96.3856 253° West 485 558 43,000  Level Kansas City Center
Tue 03:10:27 PM 39.1983 -96.5678 251° West 483 556 43,000  Level Kansas City Center
Tue 03:11:29 PM 39.1586 -96.7267 252° West 484 557 43,000  Level Kansas City Center
Tue 03:12:31 PM 39.1097 -96.9078 251° West 482 555 43,000 48 Level Kansas City Center
Tue 03:13:33 PM 39.0703 -97.0661 252° West 484 557 43,100  Climbing Kansas City Center
Tue 03:14:35 PM 39.0244 -97.2497 252° West 483 556 43,000 -48 Descending Kansas City Center
Tue 03:15:37 PM 38.9831 -97.4072 251° West 484 557 43,000  Level Kansas City Center
Tue 03:16:39 PM 38.9353 -97.5881 251° West 480 552 43,000  Level Kansas City Center
Tue 03:17:41 PM 38.9089 -97.7475 258° West 478 550 43,000  Level Kansas City Center
Tue 03:18:44 PM 38.8886 -97.9228 262° West 480 552 43,000  Level Kansas City Center
Tue 03:19:46 PM 38.8686 -98.0903 261° West 478 550 43,000  Level Kansas City Center
Tue 03:20:48 PM 38.8478 -98.2561 261° West 473 544 43,000  Level Kansas City Center
Tue 03:21:50 PM 38.8269 -98.4222 261° West 474 545 43,000  Level Kansas City Center
Tue 03:22:52 PM 38.8014 -98.6214 261° West 476 548 43,000 97 Level Kansas City Center
Tue 03:23:54 PM 38.7794 -98.7847 260° West 470 541 43,200 339 Climbing Kansas City Center
Tue 03:24:56 PM 38.7583 -98.9478 261° West 467 537 43,700 484 Climbing Kansas City Center
Tue 03:25:58 PM 38.7375 -99.1119 261° West 468 539 44,200 484 Climbing Kansas City Center
Tue 03:27:00 PM 38.7133 -99.2769 259° West 470 541 44,700 387 Climbing Kansas City Center
Tue 03:28:02 PM 38.6911 -99.4372 260° West 465 535 45,000 231 Climbing Kansas City Center
Tue 03:28:18 PM 38.6819 -99.5089 261° West 463 533 45,000  Level Denver Center
Tue 03:29:19 PM 38.6786 -99.6656 268° West 460 529 45,000  Level Denver Center
Tue 03:30:21 PM 38.6858 -99.8514 273° West 469 540 45,000  Level Denver Center
Tue 03:31:23 PM 38.6906 -100.0100 272° West 468 539 45,000  Level Denver Center
Tue 03:32:24 PM 38.6956 -100.1964 272° West 470 541 45,000  Level Denver Center
Tue 03:33:26 PM 38.7014 -100.3567 273° West 472 543 45,000  Level Denver Center
Tue 03:34:28 PM 38.7047 -100.5167 272° West 471 542 45,000  Level Denver Center
Tue 03:35:29 PM 38.7100 -100.7031 272° West 472 543 45,000  Level Denver Center
Tue 03:36:31 PM 38.7133 -100.8619 272° West 469 540 45,000  Level Denver Center
Tue 03:37:33 PM 38.7169 -101.0483 271° West 471 542 45,000  Level Denver Center
Tue 03:38:35 PM 38.7203 -101.2100 272° West 476 548 45,000  Level Denver Center
Tue 03:39:36 PM 38.7239 -101.3978 271° West 474 545 45,000  Level Denver Center
Tue 03:40:38 PM 38.7264 -101.5603 271° West 479 551 45,000  Level Denver Center
Tue 03:41:40 PM 38.7297 -101.7481 271° West 475 547 45,000  Level Denver Center
Tue 03:42:42 PM 38.7311 -101.9103 271° West 477 549 45,000  Level Denver Center
Tue 03:43:43 PM 38.7333 -102.1003 271° West 480 552 45,000  Level Denver Center
Tue 03:44:45 PM 38.7353 -102.2619 271° West 477 549 45,000  Level Denver Center
Tue 03:45:47 PM 38.7378 -102.4242 271° West 477 549 45,000  Level Denver Center
Tue 03:46:48 PM 38.7392 -102.6122 271° West 476 548 45,000  Level Denver Center
Tue 03:47:50 PM 38.7403 -102.7719 271° West 476 548 45,000  Level Denver Center
Tue 03:48:52 PM 38.7411 -102.9583 270° West 472 543 45,000  Level Denver Center
Tue 03:49:54 PM 38.7414 -103.1181 270° West 470 541 45,000  Level Denver Center
Tue 03:50:55 PM 38.7422 -103.3050 270° West 470 541 45,000  Level Denver Center
Tue 03:51:57 PM 38.7428 -103.4661 270° West 474 545 45,000  Level Denver Center
Tue 03:52:59 PM 38.7428 -103.6536 270° West 473 544 45,000  Level Denver Center
Tue 03:54:01 PM 38.7428 -103.8156 270° West 477 549 45,000  Level Denver Center
Tue 03:55:02 PM 38.7414 -104.0014 270° West 470 541 45,000  Level Denver Center
Tue 03:56:04 PM 38.7414 -104.1617 270° West 469 540 45,000  Level Denver Center
Tue 03:57:06 PM 38.7394 -104.3225 269° West 473 544 45,000  Level Denver Center
Tue 03:58:07 PM 38.7375 -104.5067 269° West 468 539 45,000  Level Denver Center
Tue 03:59:09 PM 38.7369 -104.6661 270° West 467 537 45,000  Level Denver Center
Tue 04:00:23 PM 38.7350 -104.8772 269° West 466 536 45,000  Level Denver Center
Tue 04:01:25 PM 38.7331 -105.0600 269° West 461 531 45,000  Level Denver Center
Tue 04:02:27 PM 38.7311 -105.2189 269° West 461 531 45,000  Level Denver Center
Tue 04:03:28 PM 38.7289 -105.3739 269° West 462 532 45,000  Level Denver Center
Tue 04:04:30 PM 38.7253 -105.5581 269° West 462 532 45,000  Level Denver Center
Tue 04:05:32 PM 38.7236 -105.7144 269° West 460 529 45,000 98 Level Denver Center
Tue 04:06:33 PM 38.7200 -105.8942 269° West 454 522 45,200 390 Climbing Denver Center
Tue 04:07:35 PM 38.7169 -106.0447 269° West 445 512 45,800 484 Climbing Denver Center
Tue 04:08:37 PM 38.7142 -106.2106 269° West 440 506 46,200 435 Climbing Denver Center
Tue 04:09:39 PM 38.7103 -106.3675 268° West 440 506 46,700 390 Climbing Denver Center
Tue 04:10:40 PM 38.7064 -106.5228 268° West 435 501 47,000 146 Climbing Denver Center
Tue 04:11:42 PM 38.7017 -106.6803 268° West 439 505 47,000  Level Denver Center
Tue 04:12:44 PM 38.6972 -106.8406 268° West 446 513 47,000  Level Denver Center
Tue 04:13:45 PM 38.6922 -107.0031 268° West 453 521 47,000  Level Denver Center
Tue 04:14:47 PM 38.6867 -107.1633 268° West 449 517 47,000  Level Denver Center
Tue 04:15:48 PM 38.6817 -107.3317 268° West 447 514 47,000  Level Denver Center
Tue 04:16:50 PM 38.6758 -107.5092 268° West 446 513 47,000  Level Denver Center
Tue 04:17:52 PM 38.6711 -107.6644 268° West 452 520 47,000  Level Denver Center
Tue 04:18:53 PM 38.6639 -107.8461 267° West 456 525 47,000  Level Denver Center
Tue 04:19:55 PM 38.6581 -108.0017 267° West 456 525 47,000  Level Denver Center
Tue 04:20:57 PM 38.6528 -108.1561 268° West 454 522 47,000  Level Denver Center
Tue 04:21:58 PM 38.6450 -108.3372 267° West 456 525 47,000  Level Denver Center
Tue 04:23:00 PM 38.6394 -108.4917 267° West 454 522 47,000  Level Denver Center
Tue 04:24:02 PM 38.6311 -108.6717 267° West 454 522 47,000  Level Denver Center
Tue 04:25:04 PM 38.6244 -108.8256 267° West 452 520 47,000  Level Denver Center
Tue 04:26:05 PM 38.6169 -108.9806 267° West 455 524 47,000  Level Denver Center
Tue 04:27:07 PM 38.6086 -109.1597 267° West 452 520 47,000  Level Denver Center
Tue 04:28:08 PM 38.6019 -109.3136 267° West 453 521 47,000  Level Denver Center
Tue 04:29:10 PM 38.5919 -109.4914 266° West 451 519 47,000  Level Denver Center
Tue 04:30:12 PM 38.5847 -109.6442 267° West 449 517 47,000  Level Denver Center
Tue 04:31:14 PM 38.5753 -109.8250 266° West 454 522 47,000  Level Denver Center
Tue 04:32:15 PM 38.5675 -109.9778 266° West 452 520 47,000  Level Denver Center
Tue 04:33:17 PM 38.5586 -110.1294 266° West 450 518 47,000  Level Denver Center
Tue 04:33:48 PM 38.5544 -110.2333 267° West 451 519 47,000  Level Salt Lake Center
Tue 04:34:50 PM 38.5453 -110.3853 266° West 449 517 47,000  Level Salt Lake Center
Tue 04:35:20 PM 38.5394 -110.4586 264° West 444 511 47,000  Level Denver Center
Tue 04:36:22 PM 38.5294 -110.6358 266° West 447 514 47,000  Level Denver Center
Tue 04:36:52 PM 38.5253 -110.7122 266° West 446 513 47,000  Level Salt Lake Center
Tue 04:37:54 PM 38.5167 -110.8650 266° West 450 518 47,000  Level Salt Lake Center
Tue 04:38:55 PM 38.5053 -111.0372 265° West 448 516 47,000 49 Level Salt Lake Center
Tue 04:39:57 PM 38.4958 -111.1942 266° West 445 512 47,100 -49 Climbing Salt Lake Center
Tue 04:40:58 PM 38.4850 -111.3511 265° West 445 512 46,900 -49 Descending Salt Lake Center
Tue 04:41:59 PM 38.4742 -111.5036 265° West 437 503 47,000 49 Climbing Salt Lake Center
Tue 04:43:01 PM 38.4642 -111.6592 265° West 440 506 47,000 49 Level Salt Lake Center
Tue 04:44:02 PM 38.4531 -111.8147 265° West 441 507 47,100  Climbing Salt Lake Center
Tue 04:45:04 PM 38.4417 -111.9717 265° West 445 512 47,000 -49 Descending Salt Lake Center
Tue 04:46:05 PM 38.4286 -112.1586 265° West 445 512 47,000  Level Salt Lake Center
Tue 04:47:06 PM 38.4167 -112.3131 264° West 442 509 47,000  Level Salt Lake Center
Tue 04:48:09 PM 38.4056 -112.4658 265° West 437 503 47,000  Level Salt Lake Center
Tue 04:49:09 PM 38.3931 -112.6203 264° West 439 505 47,000  Level Salt Lake Center
Tue 04:50:10 PM 38.3800 -112.7753 264° West 442 509 47,000  Level Salt Lake Center
Tue 04:51:12 PM 38.3683 -112.9289 265° West 440 506 47,000  Level Salt Lake Center
Tue 04:52:13 PM 38.3561 -113.0844 264° West 442 509 47,000  Level Salt Lake Center
Tue 04:53:15 PM 38.3422 -113.2703 265° West 443 510 47,000  Level Salt Lake Center
Tue 04:54:16 PM 38.3303 -113.4256 264° West 442 509 47,000  Level Salt Lake Center
Tue 04:55:17 PM 38.3183 -113.5828 265° West 448 516 47,000  Level Salt Lake Center
Tue 04:56:19 PM 38.3061 -113.7389 264° West 446 513 47,000  Level Salt Lake Center
Tue 04:57:20 PM 38.2936 -113.8964 264° West 449 517 47,000  Level Salt Lake Center
Tue 04:58:22 PM 38.2806 -114.0531 264° West 448 516 47,000  Level Salt Lake Center
Tue 04:59:23 PM 38.2669 -114.2119 264° West 452 520 47,000  Level Salt Lake Center
Tue 05:00:24 PM 38.2522 -114.3697 263° West 452 520 47,000  Level Salt Lake Center
Tue 05:01:26 PM 38.2403 -114.5586 265° West 450 518 47,000  Level Salt Lake Center
Tue 05:02:27 PM 38.2319 -114.7169 266° West 451 519 47,000  Level Salt Lake Center
Tue 05:03:29 PM 38.2208 -114.8761 265° West 453 521 47,000  Level Salt Lake Center
Tue 05:04:30 PM 38.2106 -115.0369 265° West 456 525 47,000  Level Salt Lake Center
Tue 05:05:32 PM 38.2008 -115.1953 266° West 452 520 47,000  Level Salt Lake Center
Tue 05:06:33 PM 38.1889 -115.3758 265° West 450 518 47,000  Level Salt Lake Center
Tue 05:07:34 PM 38.1772 -115.5344 265° West 450 518 47,000  Level Salt Lake Center
Tue 05:08:36 PM 38.1667 -115.6903 265° West 445 512 47,000  Level Salt Lake Center
Tue 05:09:37 PM 38.1556 -115.8494 265° West 451 519 47,000  Level Salt Lake Center
Tue 05:10:39 PM 38.1433 -116.0089 264° West 453 521 47,000  Level Salt Lake Center
Tue 05:11:40 PM 38.1319 -116.1683 265° West 453 521 47,000  Level Salt Lake Center
Tue 05:12:42 PM 38.1200 -116.3272 265° West 453 521 47,000  Level Salt Lake Center
Tue 05:13:05 PM 38.1158 -116.3908 265° West 450 518 47,000  Level Oakland Center
Tue 05:13:43 PM 38.1078 -116.4858 264° West 452 520 47,000  Level Salt Lake Center
Tue 05:14:45 PM 38.0950 -116.6458 264° West 454 522 47,000  Level Salt Lake Center
Tue 05:15:46 PM 38.0828 -116.8061 265° West 455 524 47,000  Level Salt Lake Center
Tue 05:16:48 PM 38.0675 -116.9978 264° West 453 521 47,000  Level Salt Lake Center
Tue 05:17:10 PM 38.0650 -117.0311 265° West 454 522 47,000  Level Oakland Center
Tue 05:17:49 PM 38.0542 -117.1631 264° West 457 526 47,000  Level Salt Lake Center
Tue 05:18:11 PM 38.0503 -117.2108 264° West 460 529 47,000  Level Oakland Center
Tue 05:19:13 PM 38.0375 -117.3628 264° West 462 532 47,000  Level Oakland Center
Tue 05:20:14 PM 38.0239 -117.5253 264° West 461 531 47,000  Level Oakland Center
Tue 05:21:15 PM 38.0106 -117.6853 264° West 456 525 47,000  Level Oakland Center
Tue 05:22:17 PM 37.9983 -117.8789 265° West 458 527 47,000  Level Oakland Center
Tue 05:23:18 PM 37.9936 -118.0417 268° West 461 531 47,000  Level Oakland Center
Tue 05:24:19 PM 37.9864 -118.2036 267° West 459 528 47,000  Level Oakland Center
Tue 05:25:21 PM 37.9803 -118.3639 267° West 456 525 47,000  Level Oakland Center
Tue 05:26:22 PM 37.9744 -118.5239 267° West 455 524 47,000  Level Oakland Center
Tue 05:27:23 PM 37.9667 -118.6856 267° West 459 528 47,000  Level Oakland Center
Tue 05:28:25 PM 37.9600 -118.8444 267° West 453 521 47,000  Level Oakland Center
Tue 05:29:26 PM 37.9536 -119.0058 267° West 456 525 47,000 -49 Level Oakland Center
Tue 05:30:27 PM 37.9464 -119.1639 267° West 455 524 46,900 -1,268 Descending Oakland Center
Tue 05:31:29 PM 37.9389 -119.3217 267° West 450 518 44,400 -2,634 Descending Oakland Center
Tue 05:32:30 PM 37.9294 -119.5100 266° West 447 514 41,500 -2,607 Descending Oakland Center
Tue 05:33:31 PM 37.9242 -119.6711 268° West 452 520 39,100 -2,341 Descending Oakland Center
Tue 05:34:33 PM 37.9139 -119.8306 265° West 453 521 36,700 -2,390 Descending Oakland Center
Tue 05:35:34 PM 37.9061 -119.9900 267° West 453 521 34,200 -2,410 Descending Oakland Center
Tue 05:36:35 PM 37.8950 -120.1550 265° West 459 528 31,800 -2,390 Descending Oakland Center
Tue 05:37:37 PM 37.8869 -120.3214 267° West 470 541 29,300 -2,488 Descending Oakland Center
Tue 05:38:38 PM 37.8781 -120.4886 266° West 474 545 26,700 -2,661 Descending Oakland Center
Tue 05:39:32 PM 37.8667 -120.6667 265° West 466 536 24,200 -2,800 Descending Northern Cal TRACON
Tue 05:40:38 PM 37.8500 -120.8167 262° West 433 498 21,100 -2,900 Descending Northern Cal TRACON
Tue 05:41:32 PM 37.8500 -120.9667 270° West 410 472 18,400 -2,750 Descending Northern Cal TRACON
Tue 05:42:38 PM 37.8333 -121.1000 261° West 371 427 15,600 -2,479 Descending Northern Cal TRACON
Tue 05:43:33 PM 37.8167 -121.2167 260° West 390 449 13,400 -2,132 Descending Northern Cal TRACON
Tue 05:44:39 PM 37.7833 -121.3333 250° West 320 368 11,300 -1,450 Descending Northern Cal TRACON
Tue 05:45:33 PM 37.7500 -121.4167 243° Southwest 298 343 10,500 -895 Descending Northern Cal TRACON
Tue 05:46:33 PM 37.7167 -121.5167 247° West 297 342 9,600 -1,400 Descending Northern Cal TRACON
Tue 05:47:33 PM 37.7000 -121.6167 258° West 288 331 7,700 -1,300 Descending Northern Cal TRACON
Tue 05:48:33 PM 37.7000 -121.7167 270° West 284 327 7,000 -800 Descending Northern Cal TRACON
Tue 05:49:33 PM 37.7167 -121.8167 282° West 277 319 6,100 -1,333 Descending Northern Cal TRACON
Tue 05:50:39 PM 37.7167 -121.9167 270° West 274 315 4,200 -1,556 Descending Northern Cal TRACON
Tue 05:50:54 PM 37.7125 -121.9203 214° Southwest 277 319 4,000 -395 Descending Oakland Center
Tue 05:51:55 PM 37.7025 -122.0092 262° West 261 300 3,700 -934 Descending Oakland Center
Tue 05:52:56 PM 37.6903 -122.1067 261° West 240 276 2,100 -1,463 Descending Oakland Center
Tue 05:53:58 PM 37.7097 -122.1608 294° West 195 224 700 8,732 Descending Oakland Center
Tue 05:54:59 PM 37.7228 -122.2031 291° West 156 180 20,000 18,984 Climbing Oakland Center
Tue 05:56:00 PM 37.7167 -122.2167 270° West  Level FlightAware Approximate
Tue 06:03:00 PM 37.7213 -122.2207 270° West  Level Estimated

Login

Don't have an account? Register now (free) for customized features, flight alerts, and more!